createdAt,value
2022-11-06T00:02:00.869Z,17.72
2022-11-06T00:04:31.528Z,17.58
2022-11-06T00:06:58.955Z,17.58
2022-11-06T00:09:26.445Z,17.18
2022-11-06T00:11:53.932Z,17.20
2022-11-06T00:14:21.357Z,17.19
2022-11-06T00:16:49.223Z,17.07
2022-11-06T00:19:18.787Z,16.93
2022-11-06T00:21:46.367Z,16.81
2022-11-06T00:24:14.879Z,16.85
2022-11-06T00:26:42.785Z,16.87
2022-11-06T00:29:13.880Z,16.77
2022-11-06T00:31:41.539Z,16.69
2022-11-06T00:34:10.726Z,16.29
2022-11-06T00:36:38.503Z,16.60
2022-11-06T00:39:05.990Z,16.48
2022-11-06T00:41:33.527Z,16.45
2022-11-06T00:44:02.258Z,16.47
2022-11-06T00:46:30.183Z,16.50
2022-11-06T00:48:58.132Z,16.44
2022-11-06T00:51:31.485Z,16.44
2022-11-06T00:54:00.988Z,16.40
2022-11-06T00:56:29.771Z,16.42
2022-11-06T00:58:59.883Z,16.33
2022-11-06T01:01:30.410Z,16.28
2022-11-06T01:04:03.538Z,16.21
2022-11-06T01:06:33.512Z,16.05
2022-11-06T01:09:01.405Z,16.04
2022-11-06T01:11:46.595Z,16.07
2022-11-06T01:14:19.718Z,15.97
2022-11-06T01:16:47.626Z,15.93
2022-11-06T01:19:16.455Z,15.83
2022-11-06T01:21:46.684Z,15.85
2022-11-06T01:24:17.403Z,15.82
2022-11-06T01:26:58.816Z,15.66
2022-11-06T01:29:32.760Z,15.73
2022-11-06T01:32:00.190Z,15.55
2022-11-06T01:34:27.700Z,15.60
2022-11-06T01:36:55.090Z,15.51
2022-11-06T01:39:22.478Z,15.62
2022-11-06T01:41:51.694Z,15.49
2022-11-06T01:44:40.843Z,15.46
2022-11-06T01:47:26.177Z,15.46
2022-11-06T01:49:58.873Z,15.47
2022-11-06T01:52:27.391Z,15.37
2022-11-06T01:54:58.619Z,15.49
2022-11-06T01:57:26.012Z,15.48
2022-11-06T01:59:54.441Z,15.46
2022-11-06T02:02:22.010Z,15.40
2022-11-06T02:04:49.920Z,15.41
2022-11-06T02:07:18.928Z,15.31
2022-11-06T02:09:46.522Z,15.39
2022-11-06T02:12:31.403Z,15.26
2022-11-06T02:15:14.047Z,15.23
2022-11-06T02:17:44.076Z,15.21
2022-11-06T02:20:55.683Z,15.27
2022-11-06T02:23:35.160Z,15.25
2022-11-06T02:26:13.263Z,15.23
2022-11-06T02:28:48.105Z,15.17
2022-11-06T02:31:18.336Z,15.19
2022-11-06T02:33:52.378Z,15.15
2022-11-06T02:36:23.463Z,15.18
2022-11-06T02:38:55.378Z,15.19
2022-11-06T02:41:26.072Z,15.21
2022-11-06T02:43:56.414Z,15.03
2022-11-06T02:46:39.802Z,14.94
2022-11-06T02:49:13.587Z,14.99
2022-11-06T02:51:45.123Z,14.97
2022-11-06T02:54:12.713Z,15.01
2022-11-06T02:56:43.422Z,14.97
2022-11-06T02:59:15.522Z,14.93
2022-11-06T03:01:47.380Z,14.81
2022-11-06T03:05:04.525Z,14.86
2022-11-06T03:07:38.438Z,14.79
2022-11-06T03:10:07.099Z,14.78
2022-11-06T03:12:57.528Z,14.78
2022-11-06T03:15:34.510Z,14.60
2022-11-06T03:18:13.072Z,14.67
2022-11-06T03:20:48.114Z,14.62
2022-11-06T03:23:29.384Z,14.32
2022-11-06T03:26:04.811Z,14.41
2022-11-06T03:28:39.135Z,14.41
2022-11-06T03:31:11.995Z,14.39
2022-11-06T03:33:45.360Z,14.46
2022-11-06T03:36:17.157Z,14.21
2022-11-06T03:38:48.084Z,14.49
2022-11-06T03:41:54.489Z,14.39
2022-11-06T03:44:24.854Z,14.33
2022-11-06T03:47:23.122Z,14.37
2022-11-06T03:50:20.571Z,14.38
2022-11-06T03:53:18.598Z,14.35
2022-11-06T03:55:50.653Z,14.42
2022-11-06T03:58:22.352Z,14.41
2022-11-06T04:00:51.552Z,14.34
2022-11-06T04:03:24.446Z,14.28
2022-11-06T04:05:55.234Z,14.41
2022-11-06T04:08:44.110Z,14.39
2022-11-06T04:11:34.434Z,14.32
2022-11-06T04:14:05.422Z,14.27
2022-11-06T04:16:41.893Z,14.36
2022-11-06T04:19:21.934Z,14.35
2022-11-06T04:22:16.582Z,14.29
2022-11-06T04:25:27.432Z,14.31
2022-11-06T04:28:24.159Z,14.30
2022-11-06T04:31:16.745Z,14.36
2022-11-06T04:33:58.331Z,14.27
2022-11-06T04:36:47.187Z,14.28
2022-11-06T04:39:17.842Z,14.28
2022-11-06T04:42:11.136Z,14.22
2022-11-06T04:44:44.225Z,14.23
2022-11-06T04:47:22.016Z,14.09
2022-11-06T04:49:51.300Z,14.19
2022-11-06T04:52:23.255Z,14.15
2022-11-06T04:54:51.219Z,14.20
2022-11-06T04:57:18.620Z,14.26
2022-11-06T04:59:46.030Z,14.23
2022-11-06T05:02:13.541Z,14.22
2022-11-06T05:04:41.418Z,14.17
2022-11-06T05:07:09.662Z,14.21
2022-11-06T05:09:37.087Z,14.23
2022-11-06T05:12:04.699Z,14.12
2022-11-06T05:14:32.736Z,14.17
2022-11-06T05:17:00.470Z,14.13
2022-11-06T05:19:27.920Z,14.11
2022-11-06T05:22:13.887Z,14.08
2022-11-06T05:24:41.291Z,14.05
2022-11-06T05:27:08.722Z,14.13
2022-11-06T05:29:36.134Z,14.14
2022-11-06T05:32:03.795Z,14.11
2022-11-06T05:34:31.211Z,14.11
2022-11-06T05:36:58.628Z,14.11
2022-11-06T05:39:26.029Z,14.13
2022-11-06T05:41:53.514Z,14.08
2022-11-06T05:44:21.145Z,14.14
2022-11-06T05:46:49.909Z,14.11
2022-11-06T05:49:18.702Z,13.99
2022-11-06T05:51:46.369Z,14.07
2022-11-06T05:54:14.646Z,14.06
2022-11-06T05:56:42.072Z,13.96
2022-11-06T05:59:09.605Z,14.00
2022-11-06T06:01:37.149Z,14.01
2022-11-06T06:04:04.827Z,14.06
2022-11-06T06:06:32.680Z,13.98
2022-11-06T06:09:00.033Z,13.97
2022-11-06T06:11:27.487Z,13.90
2022-11-06T06:13:54.874Z,13.95
2022-11-06T06:16:22.314Z,13.98
2022-11-06T06:18:53.438Z,13.99
2022-11-06T06:21:20.834Z,13.96
2022-11-06T06:23:48.229Z,13.97
2022-11-06T06:26:15.678Z,13.95
2022-11-06T06:28:43.372Z,14.01
2022-11-06T06:31:10.955Z,14.03
2022-11-06T06:33:38.349Z,14.03
2022-11-06T06:36:06.532Z,14.02
2022-11-06T06:38:34.136Z,14.08
2022-11-06T06:41:02.844Z,14.07
2022-11-06T06:43:30.783Z,14.09
2022-11-06T06:46:03.244Z,14.05
2022-11-06T06:48:30.612Z,13.96
2022-11-06T06:51:01.850Z,14.03
2022-11-06T06:53:29.910Z,13.92
2022-11-06T06:56:01.853Z,14.00
2022-11-06T06:58:30.173Z,14.08
2022-11-06T07:01:10.368Z,14.01
2022-11-06T07:03:38.826Z,14.13
2022-11-06T07:06:07.185Z,14.10
2022-11-06T07:08:34.567Z,14.09
2022-11-06T07:11:07.631Z,14.06
2022-11-06T07:13:36.563Z,14.04
2022-11-06T07:16:09.758Z,13.94
2022-11-06T07:18:38.188Z,14.01
2022-11-06T07:21:07.852Z,14.04
2022-11-06T07:23:36.259Z,14.01
2022-11-06T07:26:04.579Z,14.07
2022-11-06T07:28:32.622Z,14.01
2022-11-06T07:40:11.018Z,12.54
2022-11-06T07:42:43.244Z,12.75
2022-11-06T07:45:15.328Z,12.85
2022-11-06T07:47:43.365Z,13.02
2022-11-06T07:50:10.783Z,13.14
2022-11-06T07:52:38.165Z,13.27
2022-11-06T07:55:06.174Z,13.42
2022-11-06T07:57:37.137Z,13.37
2022-11-06T08:00:06.392Z,13.41
2022-11-06T08:02:40.454Z,13.63
2022-11-06T08:05:08.548Z,13.72
2022-11-06T08:07:36.084Z,13.76
2022-11-06T08:10:03.896Z,13.83
2022-11-06T08:12:31.316Z,13.89
2022-11-06T08:14:58.743Z,13.80
2022-11-06T08:17:27.675Z,13.95
2022-11-06T08:19:55.092Z,13.97
2022-11-06T08:22:22.602Z,14.01
2022-11-06T08:24:49.971Z,13.94
2022-11-06T08:27:17.976Z,14.01
2022-11-06T08:29:45.936Z,13.95
2022-11-06T08:32:13.469Z,14.06
2022-11-06T08:34:42.341Z,14.01
2022-11-06T08:37:10.642Z,13.95
2022-11-06T08:39:38.442Z,14.08
2022-11-06T08:42:07.209Z,13.92
2022-11-06T08:44:34.821Z,14.09
2022-11-06T08:47:02.575Z,14.15
2022-11-06T08:49:30.559Z,13.94
2022-11-06T08:51:58.457Z,13.99
2022-11-06T08:54:26.514Z,14.06
2022-11-06T08:56:54.355Z,14.22
2022-11-06T08:59:22.091Z,14.25
2022-11-06T09:01:49.945Z,14.26
2022-11-06T09:04:17.749Z,14.20
2022-11-06T09:06:45.368Z,14.17
2022-11-06T09:09:13.011Z,14.15
2022-11-06T09:11:41.261Z,14.22
2022-11-06T09:14:09.082Z,14.31
2022-11-06T09:16:36.747Z,14.27
2022-11-06T09:19:04.363Z,14.31
2022-11-06T09:21:32.770Z,14.34
2022-11-06T09:24:00.329Z,14.35
2022-11-06T09:26:27.954Z,14.39
2022-11-06T09:28:55.576Z,14.33
2022-11-06T09:31:23.190Z,14.35
2022-11-06T09:33:51.329Z,14.40
2022-11-06T09:36:18.898Z,14.46
2022-11-06T09:38:46.468Z,14.49
2022-11-06T09:41:52.621Z,14.46
2022-11-06T09:44:32.869Z,14.46
2022-11-06T09:47:05.738Z,14.47
2022-11-06T09:49:42.199Z,14.15
2022-11-06T09:52:34.709Z,14.29
2022-11-06T09:55:06.376Z,14.44
2022-11-06T09:57:42.812Z,14.41
2022-11-06T10:00:15.880Z,14.50
2022-11-06T10:02:53.051Z,14.32
2022-11-06T10:05:36.210Z,14.42
2022-11-06T10:08:10.481Z,14.49
2022-11-06T10:10:57.400Z,14.36
2022-11-06T10:13:31.071Z,14.55
2022-11-06T10:16:16.277Z,14.58
2022-11-06T10:18:50.104Z,14.63
2022-11-06T10:21:20.548Z,14.68
2022-11-06T10:24:00.166Z,14.66
2022-11-06T10:26:38.601Z,14.66
2022-11-06T10:29:28.099Z,14.78
2022-11-06T10:32:08.536Z,14.79
2022-11-06T10:34:52.835Z,14.82
2022-11-06T10:37:28.558Z,14.83
2022-11-06T10:39:57.271Z,14.87
2022-11-06T10:42:38.274Z,14.85
2022-11-06T10:45:11.948Z,14.90
2022-11-06T10:47:52.252Z,14.84
2022-11-06T10:50:20.005Z,14.93
2022-11-06T10:52:58.814Z,14.91
2022-11-06T10:55:26.399Z,14.97
2022-11-06T10:58:01.106Z,14.98
2022-11-06T11:00:28.627Z,15.02
2022-11-06T11:02:57.410Z,15.04
2022-11-06T11:05:26.700Z,15.03
2022-11-06T11:07:55.200Z,14.93
2022-11-06T11:10:28.708Z,15.09
2022-11-06T11:13:01.679Z,15.02
2022-11-06T11:15:33.095Z,15.05
2022-11-06T11:18:33.997Z,15.13
2022-11-06T11:21:25.486Z,15.15
2022-11-06T11:24:10.604Z,15.20
2022-11-06T11:26:43.379Z,15.30
2022-11-06T11:29:21.597Z,15.28
2022-11-06T11:31:57.688Z,15.37
2022-11-06T11:34:27.807Z,15.37
2022-11-06T11:37:08.339Z,15.37
2022-11-06T11:39:38.083Z,15.43
2022-11-06T11:42:23.473Z,15.45
2022-11-06T11:45:07.207Z,15.50
2022-11-06T11:47:35.907Z,15.49
2022-11-06T11:50:21.906Z,15.53
2022-11-06T11:52:51.608Z,15.60
2022-11-06T11:55:26.674Z,15.60
2022-11-06T11:57:56.570Z,15.56
2022-11-06T12:00:24.207Z,15.62
2022-11-06T12:02:59.008Z,15.52
2022-11-06T12:05:37.192Z,15.62
2022-11-06T12:08:04.961Z,15.57
2022-11-06T12:10:40.251Z,15.58
2022-11-06T12:13:16.364Z,15.64
2022-11-06T12:15:57.571Z,15.55
2022-11-06T12:18:36.422Z,15.58
2022-11-06T12:21:22.142Z,15.59
2022-11-06T12:24:30.812Z,15.68
2022-11-06T12:27:02.408Z,15.68
2022-11-06T12:30:10.683Z,15.61
2022-11-06T12:33:12.243Z,15.57
2022-11-06T12:35:48.583Z,15.68
2022-11-06T12:38:45.183Z,15.67
2022-11-06T12:41:17.042Z,15.67
2022-11-06T12:43:46.957Z,15.66
2022-11-06T12:46:37.062Z,15.59
2022-11-06T12:49:09.179Z,15.81
2022-11-06T12:52:14.792Z,15.77
2022-11-06T12:54:54.113Z,15.86
2022-11-06T12:57:48.028Z,15.86
2022-11-06T13:00:24.116Z,15.91
2022-11-06T13:03:13.320Z,15.83
2022-11-06T13:05:59.654Z,15.83
2022-11-06T13:08:39.391Z,15.89
2022-11-06T13:11:36.595Z,15.88
2022-11-06T13:14:26.906Z,15.76
2022-11-06T13:17:09.199Z,15.84
2022-11-06T13:19:45.354Z,15.77
2022-11-06T13:22:15.847Z,15.82
2022-11-06T13:24:57.837Z,15.81
2022-11-06T13:27:50.376Z,15.75
2022-11-06T13:30:19.852Z,15.70
2022-11-06T13:33:15.149Z,15.50
2022-11-06T13:35:43.622Z,15.73
2022-11-06T13:38:23.680Z,15.67
2022-11-06T13:40:54.017Z,15.73
2022-11-06T13:43:37.522Z,15.67
2022-11-06T13:46:25.551Z,15.61
2022-11-06T13:49:11.533Z,15.61
2022-11-06T13:51:54.524Z,15.39
2022-11-06T13:54:54.381Z,15.54
2022-11-06T13:57:46.656Z,15.55
2022-11-06T14:00:37.612Z,15.38
2022-11-06T14:03:28.335Z,15.37
2022-11-06T14:06:05.726Z,15.50
2022-11-06T14:08:35.199Z,15.44
2022-11-06T14:11:06.120Z,15.45
2022-11-06T14:13:35.335Z,15.43
2022-11-06T14:16:07.659Z,15.39
2022-11-06T14:18:35.357Z,15.27
2022-11-06T14:21:28.275Z,15.33
2022-11-06T14:24:05.846Z,15.34
2022-11-06T14:26:39.026Z,15.35
2022-11-06T14:29:42.325Z,15.14
2022-11-06T14:32:12.059Z,15.24
2022-11-06T14:34:41.996Z,15.25
2022-11-06T14:37:42.192Z,15.06
2022-11-06T14:40:13.694Z,15.21
2022-11-06T14:42:46.348Z,15.05
2022-11-06T14:45:21.394Z,15.15
2022-11-06T14:47:54.405Z,14.91
2022-11-06T14:50:25.661Z,14.95
2022-11-06T14:52:59.619Z,15.00
2022-11-06T14:55:33.244Z,15.09
2022-11-06T14:58:20.811Z,15.05
2022-11-06T15:00:52.539Z,15.14
2022-11-06T15:03:21.392Z,15.02
2022-11-06T15:05:52.338Z,15.05
2022-11-06T15:08:45.126Z,15.07
2022-11-06T15:11:31.003Z,14.85
2022-11-06T15:14:07.787Z,14.97
2022-11-06T15:16:50.786Z,14.97
2022-11-06T15:19:47.500Z,15.04
2022-11-06T15:22:28.954Z,14.98
2022-11-06T15:25:04.066Z,15.01
2022-11-06T15:27:38.946Z,14.89
2022-11-06T15:30:19.702Z,14.97
2022-11-06T15:32:48.591Z,15.05
2022-11-06T15:35:19.437Z,15.04
2022-11-06T15:37:50.764Z,15.01
2022-11-06T15:40:30.494Z,15.01
2022-11-06T15:43:01.024Z,14.98
2022-11-06T15:45:29.446Z,14.98
2022-11-06T15:48:02.004Z,14.87
2022-11-06T15:50:34.061Z,14.97
2022-11-06T15:53:14.086Z,14.96
2022-11-06T15:55:55.377Z,14.64
2022-11-06T15:58:31.724Z,14.92
2022-11-06T16:01:01.134Z,14.97
2022-11-06T16:03:31.416Z,14.87
2022-11-06T16:06:02.055Z,14.88
2022-11-06T16:08:31.446Z,14.95
2022-11-06T16:10:59.227Z,14.89
2022-11-06T16:13:27.006Z,14.99
2022-11-06T16:15:59.041Z,14.92
2022-11-06T16:18:32.467Z,14.95
2022-11-06T16:21:10.156Z,14.96
2022-11-06T16:23:46.518Z,14.91
2022-11-06T16:26:16.242Z,14.94
2022-11-06T16:28:45.571Z,14.99
2022-11-06T16:31:19.287Z,14.94
2022-11-06T16:34:01.059Z,14.66
2022-11-06T16:36:30.609Z,14.80
2022-11-06T16:39:40.059Z,14.87
2022-11-06T16:42:27.831Z,14.90
2022-11-06T16:45:31.369Z,14.94
2022-11-06T16:48:08.045Z,14.73
2022-11-06T16:50:50.543Z,14.83
2022-11-06T16:53:19.383Z,14.89
2022-11-06T16:56:07.195Z,14.87
2022-11-06T16:58:52.050Z,14.86
2022-11-06T17:01:21.006Z,14.73
2022-11-06T17:03:54.556Z,14.84
2022-11-06T17:06:30.128Z,14.79
2022-11-06T17:09:24.226Z,14.72
2022-11-06T17:11:56.733Z,14.84
2022-11-06T17:14:24.980Z,14.81
2022-11-06T17:16:53.658Z,14.82
2022-11-06T17:19:21.588Z,14.80
2022-11-06T17:21:50.262Z,14.91
2022-11-06T17:24:36.121Z,14.86
2022-11-06T17:27:05.357Z,14.92
2022-11-06T17:29:36.374Z,14.88
2022-11-06T17:32:04.689Z,14.89
2022-11-06T17:34:32.189Z,14.94
2022-11-06T17:36:59.700Z,14.93
2022-11-06T17:39:27.164Z,14.96
2022-11-06T17:41:54.743Z,14.93
2022-11-06T17:44:22.479Z,14.95
2022-11-06T17:46:50.016Z,14.94
2022-11-06T17:49:18.678Z,14.95
2022-11-06T17:51:50.163Z,14.95
2022-11-06T17:54:18.881Z,14.90
2022-11-06T17:56:46.560Z,14.95
2022-11-06T17:59:14.431Z,14.91
2022-11-06T18:01:42.279Z,14.96
2022-11-06T18:04:10.050Z,15.02
2022-11-06T18:06:37.518Z,14.91
2022-11-06T18:09:07.482Z,15.03
2022-11-06T18:11:35.015Z,15.01
2022-11-06T18:14:03.174Z,15.02
2022-11-06T18:16:32.776Z,15.09
2022-11-06T18:19:00.925Z,15.10
2022-11-06T18:21:28.505Z,15.11
2022-11-06T18:23:56.027Z,15.09
2022-11-06T18:26:23.480Z,15.14
2022-11-06T18:28:51.150Z,15.10
2022-11-06T18:31:19.477Z,15.14
2022-11-06T18:33:47.651Z,15.11
2022-11-06T18:36:16.061Z,15.20
2022-11-06T18:38:43.673Z,15.16
2022-11-06T18:41:14.058Z,15.17
2022-11-06T18:43:41.551Z,15.18
2022-11-06T18:46:36.103Z,15.12
2022-11-06T18:49:03.727Z,15.15
2022-11-06T18:51:35.467Z,15.21
2022-11-06T18:54:05.080Z,15.05
2022-11-06T18:56:33.685Z,15.15
2022-11-06T18:59:01.122Z,15.12
2022-11-06T19:01:29.722Z,15.19
2022-11-06T19:03:57.364Z,15.16
2022-11-06T19:06:24.803Z,15.05
2022-11-06T19:08:52.372Z,15.14
2022-11-06T19:11:19.965Z,14.95
2022-11-06T19:13:48.637Z,15.08
2022-11-06T19:16:19.362Z,15.08
2022-11-06T19:21:30.390Z,15.10
2022-11-06T19:24:05.355Z,15.05
2022-11-06T19:26:35.726Z,15.04
2022-11-06T19:29:05.285Z,15.00
2022-11-06T19:31:33.254Z,14.94
2022-11-06T19:34:02.152Z,14.96
2022-11-06T19:36:30.282Z,14.96
2022-11-06T19:38:58.657Z,14.96
2022-11-06T19:41:27.035Z,14.96
2022-11-06T19:43:54.618Z,14.87
2022-11-06T19:46:26.022Z,14.94
2022-11-06T19:48:57.261Z,14.96
2022-11-06T19:51:25.902Z,14.86
2022-11-06T19:53:54.433Z,14.94
2022-11-06T19:56:22.289Z,14.95
2022-11-06T19:58:50.780Z,14.93
2022-11-06T20:01:19.556Z,14.92
2022-11-06T20:03:47.185Z,14.92
2022-11-06T20:06:14.980Z,14.85
2022-11-06T20:08:42.873Z,14.90
2022-11-06T20:11:12.759Z,14.87
2022-11-06T20:13:41.117Z,14.81
2022-11-06T20:16:15.061Z,14.87
2022-11-06T20:18:42.677Z,14.87
2022-11-06T20:21:12.014Z,14.89
2022-11-06T20:23:39.689Z,14.80
2022-11-06T20:26:07.283Z,14.88
2022-11-06T20:28:35.028Z,14.89
2022-11-06T20:31:07.415Z,14.90
2022-11-06T20:33:35.157Z,14.78
2022-11-06T20:36:13.318Z,14.80
2022-11-06T20:38:41.107Z,14.87
2022-11-06T20:41:08.566Z,14.82
2022-11-06T20:43:36.173Z,14.85
2022-11-06T20:46:04.100Z,14.84
2022-11-06T20:48:32.989Z,14.86
2022-11-06T20:51:05.351Z,14.81
2022-11-06T20:53:32.892Z,14.64
2022-11-06T20:56:02.535Z,14.78
2022-11-06T20:58:30.340Z,14.76
2022-11-06T21:01:06.387Z,14.66
2022-11-06T21:03:34.207Z,14.64
2022-11-06T21:06:01.879Z,14.52
2022-11-06T21:08:32.307Z,14.51
2022-11-06T21:11:06.011Z,14.44
2022-11-06T21:13:34.299Z,14.47
2022-11-06T21:16:04.765Z,14.48
2022-11-06T21:18:35.327Z,14.44
2022-11-06T21:21:05.936Z,14.50
2022-11-06T21:23:34.616Z,14.47
2022-11-06T21:26:13.920Z,14.44
2022-11-06T21:28:43.377Z,14.43
2022-11-06T21:31:25.870Z,14.42
2022-11-06T21:33:56.402Z,14.34
2022-11-06T21:36:28.671Z,14.33
2022-11-06T21:38:59.016Z,14.41
2022-11-06T21:41:28.482Z,14.37
2022-11-06T21:43:56.869Z,14.35
2022-11-06T21:46:24.726Z,14.37
2022-11-06T21:48:52.910Z,14.35
2022-11-06T21:51:26.643Z,14.30
2022-11-06T21:54:13.080Z,14.29
2022-11-06T21:56:41.615Z,14.21
2022-11-06T21:59:11.874Z,14.26
2022-11-06T22:01:40.285Z,14.22
2022-11-06T22:04:08.598Z,14.20
2022-11-06T22:06:36.173Z,14.18
2022-11-06T22:09:03.932Z,14.18
2022-11-06T22:11:33.318Z,14.16
2022-11-06T22:14:04.835Z,14.06
2022-11-06T22:16:35.491Z,14.02
2022-11-06T22:19:03.778Z,14.07
2022-11-06T22:21:31.242Z,14.03
2022-11-06T22:23:58.799Z,13.97
2022-11-06T22:26:29.810Z,14.02
2022-11-06T22:28:59.535Z,13.97
2022-11-06T22:31:27.834Z,13.94
2022-11-06T22:33:55.987Z,13.87
2022-11-06T22:36:24.128Z,13.87
2022-11-06T22:38:52.181Z,13.88
2022-11-06T22:41:22.201Z,13.81
2022-11-06T22:43:50.102Z,13.79
2022-11-06T22:46:20.951Z,13.80
2022-11-06T22:48:49.259Z,13.78
2022-11-06T22:51:21.743Z,13.79
2022-11-06T22:53:50.420Z,13.75
2022-11-06T22:56:18.727Z,13.77
2022-11-06T22:58:46.091Z,13.62
2022-11-06T23:01:13.914Z,13.76
2022-11-06T23:03:41.385Z,13.75
2022-11-06T23:06:10.051Z,13.77
2022-11-06T23:08:42.913Z,13.72
2022-11-06T23:11:15.197Z,13.71
2022-11-06T23:13:43.984Z,13.67
2022-11-06T23:16:13.904Z,13.70
2022-11-06T23:18:41.723Z,13.58
2022-11-06T23:21:16.988Z,13.53
2022-11-06T23:23:45.264Z,13.55
2022-11-06T23:26:18.459Z,13.51
2022-11-06T23:28:46.445Z,13.50
2022-11-06T23:31:15.176Z,13.48
2022-11-06T23:33:43.504Z,13.43
2022-11-06T23:36:13.675Z,13.35
2022-11-06T23:38:41.718Z,13.31
2022-11-06T23:41:30.749Z,13.40
2022-11-06T23:43:58.932Z,13.39
2022-11-06T23:46:28.845Z,13.39
2022-11-06T23:48:56.460Z,13.33
2022-11-06T23:51:26.777Z,13.36
2022-11-06T23:53:54.433Z,13.29
2022-11-06T23:56:21.846Z,13.26
2022-11-06T23:58:49.427Z,13.28
